<?xml version="1.0" encoding="UTF-8" standalone="no" ?>
<gpx xmlns="http://www.topografix.com/GPX/1/1" xmlns:xsi="http://www.w3.org/2001/XMLSchema-instance" xsi:schemaLocation="http://www.topografix.com/GPX/1/1 http://www.topografix.com/GPX/1/1/gpx.xsd" version="1.1" creator="VisuGPX - https://www.visugpx.com">
  <metadata>
    <name>Etang de Saint-Cucufa</name>
    <desc><![CDATA[Parcours Marche nordique]]></desc>
  </metadata>
  <trk>
    <name><![CDATA[St Cucufa-R8]]></name>
    <trkseg>
      <trkpt lat="48.85571" lon="2.16405">
        <ele>114.74</ele>
        <time>2024-10-30T08:16:59Z</time>
      </trkpt>
      <trkpt lat="48.8557" lon="2.16404">
        <ele>114.59</ele>
        <time>2024-10-30T08:17:14Z</time>
      </trkpt>
      <trkpt lat="48.85574" lon="2.16411">
        <ele>111.83</ele>
        <time>2024-10-30T08:30:41Z</time>
      </trkpt>
      <trkpt lat="48.85585" lon="2.16431">
        <ele>110.08</ele>
        <time>2024-10-30T08:30:58Z</time>
      </trkpt>
      <trkpt lat="48.85594" lon="2.1645">
        <ele>107.84</ele>
        <time>2024-10-30T08:31:14Z</time>
      </trkpt>
      <trkpt lat="48.85605" lon="2.16465">
        <ele>107.01</ele>
        <time>2024-10-30T08:31:27Z</time>
      </trkpt>
      <trkpt lat="48.85615" lon="2.16487">
        <ele>105.07</ele>
        <time>2024-10-30T08:31:40Z</time>
      </trkpt>
      <trkpt lat="48.85625" lon="2.16513">
        <ele>103.02</ele>
        <time>2024-10-30T08:31:55Z</time>
      </trkpt>
      <trkpt lat="48.85643" lon="2.16527">
        <ele>101.87</ele>
        <time>2024-10-30T08:32:10Z</time>
      </trkpt>
      <trkpt lat="48.85661" lon="2.16536">
        <ele>100.9</ele>
        <time>2024-10-30T08:32:26Z</time>
      </trkpt>
      <trkpt lat="48.85676" lon="2.16548">
        <ele>99.49</ele>
        <time>2024-10-30T08:32:41Z</time>
      </trkpt>
      <trkpt lat="48.85694" lon="2.16561">
        <ele>97.87</ele>
        <time>2024-10-30T08:32:58Z</time>
      </trkpt>
      <trkpt lat="48.85718" lon="2.16566">
        <ele>96.5</ele>
        <time>2024-10-30T08:33:17Z</time>
      </trkpt>
      <trkpt lat="48.85742" lon="2.16566">
        <ele>95.14</ele>
        <time>2024-10-30T08:33:37Z</time>
      </trkpt>
      <trkpt lat="48.85762" lon="2.16561">
        <ele>94.03</ele>
        <time>2024-10-30T08:33:54Z</time>
      </trkpt>
      <trkpt lat="48.85783" lon="2.16556">
        <ele>92.36</ele>
        <time>2024-10-30T08:34:11Z</time>
      </trkpt>
      <trkpt lat="48.85804" lon="2.16552">
        <ele>90.79</ele>
        <time>2024-10-30T08:34:28Z</time>
      </trkpt>
      <trkpt lat="48.85826" lon="2.16548">
        <ele>89.24</ele>
        <time>2024-10-30T08:34:45Z</time>
      </trkpt>
      <trkpt lat="48.85851" lon="2.16547">
        <ele>87.4</ele>
        <time>2024-10-30T08:35:04Z</time>
      </trkpt>
      <trkpt lat="48.85876" lon="2.16543">
        <ele>86.55</ele>
        <time>2024-10-30T08:35:20Z</time>
      </trkpt>
      <trkpt lat="48.85894" lon="2.1654">
        <ele>85.2</ele>
        <time>2024-10-30T08:35:38Z</time>
      </trkpt>
      <trkpt lat="48.85913" lon="2.16541">
        <ele>83.8</ele>
        <time>2024-10-30T08:35:54Z</time>
      </trkpt>
      <trkpt lat="48.85931" lon="2.16536">
        <ele>83.41</ele>
        <time>2024-10-30T08:36:09Z</time>
      </trkpt>
      <trkpt lat="48.85945" lon="2.1652">
        <ele>82.78</ele>
        <time>2024-10-30T08:36:24Z</time>
      </trkpt>
      <trkpt lat="48.85945" lon="2.16519">
        <ele>82.9</ele>
        <time>2024-10-30T08:36:27Z</time>
      </trkpt>
      <trkpt lat="48.85963" lon="2.16507">
        <ele>82.33</ele>
        <time>2024-10-30T08:36:42Z</time>
      </trkpt>
      <trkpt lat="48.85979" lon="2.16497">
        <ele>81.42</ele>
        <time>2024-10-30T08:36:56Z</time>
      </trkpt>
      <trkpt lat="48.85992" lon="2.16484">
        <ele>80.95</ele>
        <time>2024-10-30T08:37:09Z</time>
      </trkpt>
      <trkpt lat="48.86006" lon="2.16469">
        <ele>80.66</ele>
        <time>2024-10-30T08:37:24Z</time>
      </trkpt>
      <trkpt lat="48.86006" lon="2.16451">
        <ele>80.41</ele>
        <time>2024-10-30T08:37:42Z</time>
      </trkpt>
      <trkpt lat="48.86006" lon="2.16439">
        <ele>80.99</ele>
        <time>2024-10-30T08:37:53Z</time>
      </trkpt>
      <trkpt lat="48.85998" lon="2.16424">
        <ele>80.51</ele>
        <time>2024-10-30T08:38:16Z</time>
      </trkpt>
      <trkpt lat="48.85995" lon="2.16419">
        <ele>79.9</ele>
        <time>2024-10-30T08:38:33Z</time>
      </trkpt>
      <trkpt lat="48.85986" lon="2.1642">
        <ele>81.18</ele>
        <time>2024-10-30T08:38:48Z</time>
      </trkpt>
      <trkpt lat="48.85988" lon="2.16416">
        <ele>80.95</ele>
        <time>2024-10-30T08:38:55Z</time>
      </trkpt>
      <trkpt lat="48.85982" lon="2.16407">
        <ele>81.11</ele>
        <time>2024-10-30T08:39:10Z</time>
      </trkpt>
      <trkpt lat="48.85975" lon="2.16391">
        <ele>82.35</ele>
        <time>2024-10-30T08:39:27Z</time>
      </trkpt>
      <trkpt lat="48.85964" lon="2.16378">
        <ele>83.16</ele>
        <time>2024-10-30T08:39:40Z</time>
      </trkpt>
      <trkpt lat="48.85941" lon="2.16357">
        <ele>85.3</ele>
        <time>2024-10-30T08:39:59Z</time>
      </trkpt>
      <trkpt lat="48.85926" lon="2.16345">
        <ele>86.33</ele>
        <time>2024-10-30T08:40:14Z</time>
      </trkpt>
      <trkpt lat="48.85914" lon="2.16338">
        <ele>88.38</ele>
        <time>2024-10-30T08:40:27Z</time>
      </trkpt>
      <trkpt lat="48.85901" lon="2.16316">
        <ele>89.08</ele>
        <time>2024-10-30T08:40:43Z</time>
      </trkpt>
      <trkpt lat="48.85887" lon="2.163">
        <ele>89.97</ele>
        <time>2024-10-30T08:40:57Z</time>
      </trkpt>
      <trkpt lat="48.85872" lon="2.16286">
        <ele>92.19</ele>
        <time>2024-10-30T08:41:13Z</time>
      </trkpt>
      <trkpt lat="48.85855" lon="2.16277">
        <ele>93.8</ele>
        <time>2024-10-30T08:41:28Z</time>
      </trkpt>
      <trkpt lat="48.85842" lon="2.16266">
        <ele>94.8</ele>
        <time>2024-10-30T08:41:45Z</time>
      </trkpt>
      <trkpt lat="48.85837" lon="2.1624">
        <ele>95.03</ele>
        <time>2024-10-30T08:42:02Z</time>
      </trkpt>
      <trkpt lat="48.85833" lon="2.16211">
        <ele>95.72</ele>
        <time>2024-10-30T08:42:19Z</time>
      </trkpt>
      <trkpt lat="48.85827" lon="2.1618">
        <ele>96.19</ele>
        <time>2024-10-30T08:42:35Z</time>
      </trkpt>
      <trkpt lat="48.85823" lon="2.16149">
        <ele>96.81</ele>
        <time>2024-10-30T08:42:51Z</time>
      </trkpt>
      <trkpt lat="48.85808" lon="2.16127">
        <ele>96</ele>
        <time>2024-10-30T08:43:06Z</time>
      </trkpt>
      <trkpt lat="48.85799" lon="2.16098">
        <ele>94.17</ele>
        <time>2024-10-30T08:43:23Z</time>
      </trkpt>
      <trkpt lat="48.85795" lon="2.16063">
        <ele>93.83</ele>
        <time>2024-10-30T08:43:41Z</time>
      </trkpt>
      <trkpt lat="48.85798" lon="2.16036">
        <ele>91.87</ele>
        <time>2024-10-30T08:43:55Z</time>
      </trkpt>
      <trkpt lat="48.85812" lon="2.16018">
        <ele>90.66</ele>
        <time>2024-10-30T08:44:11Z</time>
      </trkpt>
      <trkpt lat="48.85825" lon="2.16008">
        <ele>90.59</ele>
        <time>2024-10-30T08:44:22Z</time>
      </trkpt>
      <trkpt lat="48.85848" lon="2.15999">
        <ele>89.56</ele>
        <time>2024-10-30T08:44:38Z</time>
      </trkpt>
      <trkpt lat="48.85877" lon="2.15987">
        <ele>90.53</ele>
        <time>2024-10-30T08:44:56Z</time>
      </trkpt>
      <trkpt lat="48.85889" lon="2.15991">
        <ele>91.1</ele>
        <time>2024-10-30T08:45:12Z</time>
      </trkpt>
      <trkpt lat="48.85904" lon="2.15974">
        <ele>92.25</ele>
        <time>2024-10-30T08:45:29Z</time>
      </trkpt>
      <trkpt lat="48.85905" lon="2.15969">
        <ele>92.19</ele>
        <time>2024-10-30T08:45:34Z</time>
      </trkpt>
      <trkpt lat="48.85908" lon="2.15963">
        <ele>91.27</ele>
        <time>2024-10-30T08:45:53Z</time>
      </trkpt>
      <trkpt lat="48.85911" lon="2.15962">
        <ele>91.09</ele>
        <time>2024-10-30T08:46:11Z</time>
      </trkpt>
      <trkpt lat="48.85908" lon="2.15965">
        <ele>90.25</ele>
        <time>2024-10-30T08:46:28Z</time>
      </trkpt>
      <trkpt lat="48.85906" lon="2.15966">
        <ele>89.87</ele>
        <time>2024-10-30T08:46:38Z</time>
      </trkpt>
      <trkpt lat="48.85898" lon="2.15976">
        <ele>90.03</ele>
        <time>2024-10-30T08:46:56Z</time>
      </trkpt>
      <trkpt lat="48.85899" lon="2.15974">
        <ele>89.63</ele>
        <time>2024-10-30T08:47:15Z</time>
      </trkpt>
      <trkpt lat="48.85899" lon="2.15965">
        <ele>89.42</ele>
        <time>2024-10-30T08:47:33Z</time>
      </trkpt>
      <trkpt lat="48.85899" lon="2.15945">
        <ele>90.36</ele>
        <time>2024-10-30T08:47:47Z</time>
      </trkpt>
      <trkpt lat="48.85897" lon="2.15935">
        <ele>91.25</ele>
        <time>2024-10-30T08:47:54Z</time>
      </trkpt>
      <trkpt lat="48.85894" lon="2.15914">
        <ele>91.91</ele>
        <time>2024-10-30T08:48:05Z</time>
      </trkpt>
      <trkpt lat="48.85888" lon="2.15897">
        <ele>92.71</ele>
        <time>2024-10-30T08:48:16Z</time>
      </trkpt>
      <trkpt lat="48.85877" lon="2.15875">
        <ele>94.04</ele>
        <time>2024-10-30T08:48:31Z</time>
      </trkpt>
      <trkpt lat="48.85869" lon="2.15852">
        <ele>95.22</ele>
        <time>2024-10-30T08:48:46Z</time>
      </trkpt>
      <trkpt lat="48.85857" lon="2.15824">
        <ele>96.85</ele>
        <time>2024-10-30T08:49:04Z</time>
      </trkpt>
      <trkpt lat="48.85849" lon="2.158">
        <ele>98.19</ele>
        <time>2024-10-30T08:49:21Z</time>
      </trkpt>
      <trkpt lat="48.85837" lon="2.15777">
        <ele>99.48</ele>
        <time>2024-10-30T08:49:38Z</time>
      </trkpt>
      <trkpt lat="48.85827" lon="2.15751">
        <ele>101.01</ele>
        <time>2024-10-30T08:49:52Z</time>
      </trkpt>
      <trkpt lat="48.85815" lon="2.15723">
        <ele>102.58</ele>
        <time>2024-10-30T08:50:07Z</time>
      </trkpt>
      <trkpt lat="48.85806" lon="2.15696">
        <ele>104.6</ele>
        <time>2024-10-30T08:50:23Z</time>
      </trkpt>
      <trkpt lat="48.85798" lon="2.15673">
        <ele>106.87</ele>
        <time>2024-10-30T08:50:38Z</time>
      </trkpt>
      <trkpt lat="48.85786" lon="2.15656">
        <ele>106.47</ele>
        <time>2024-10-30T08:50:52Z</time>
      </trkpt>
      <trkpt lat="48.85784" lon="2.15651">
        <ele>106.97</ele>
        <time>2024-10-30T08:51:07Z</time>
      </trkpt>
      <trkpt lat="48.8578" lon="2.15659">
        <ele>104.98</ele>
        <time>2024-10-30T08:51:23Z</time>
      </trkpt>
      <trkpt lat="48.85779" lon="2.15661">
        <ele>104.48</ele>
        <time>2024-10-30T08:51:25Z</time>
      </trkpt>
      <trkpt lat="48.85773" lon="2.15674">
        <ele>102.19</ele>
        <time>2024-10-30T08:51:38Z</time>
      </trkpt>
      <trkpt lat="48.85771" lon="2.15677">
        <ele>100.98</ele>
        <time>2024-10-30T08:51:42Z</time>
      </trkpt>
      <trkpt lat="48.8576" lon="2.15675">
        <ele>101.68</ele>
        <time>2024-10-30T08:51:55Z</time>
      </trkpt>
      <trkpt lat="48.85751" lon="2.15663">
        <ele>101.74</ele>
        <time>2024-10-30T08:52:10Z</time>
      </trkpt>
      <trkpt lat="48.85743" lon="2.15644">
        <ele>101.88</ele>
        <time>2024-10-30T08:52:27Z</time>
      </trkpt>
      <trkpt lat="48.85737" lon="2.15627">
        <ele>101.66</ele>
        <time>2024-10-30T08:52:37Z</time>
      </trkpt>
      <trkpt lat="48.85726" lon="2.15601">
        <ele>103.38</ele>
        <time>2024-10-30T08:52:55Z</time>
      </trkpt>
      <trkpt lat="48.85713" lon="2.15582">
        <ele>105.28</ele>
        <time>2024-10-30T08:53:09Z</time>
      </trkpt>
      <trkpt lat="48.85702" lon="2.15565">
        <ele>106.24</ele>
        <time>2024-10-30T08:53:22Z</time>
      </trkpt>
      <trkpt lat="48.85694" lon="2.15546">
        <ele>109.49</ele>
        <time>2024-10-30T08:53:37Z</time>
      </trkpt>
      <trkpt lat="48.85692" lon="2.1554">
        <ele>110.51</ele>
        <time>2024-10-30T08:53:41Z</time>
      </trkpt>
      <trkpt lat="48.85692" lon="2.15537">
        <ele>110.38</ele>
        <time>2024-10-30T08:53:42Z</time>
      </trkpt>
      <trkpt lat="48.85689" lon="2.15523">
        <ele>113.03</ele>
        <time>2024-10-30T08:54:02Z</time>
      </trkpt>
      <trkpt lat="48.85686" lon="2.15516">
        <ele>112.65</ele>
        <time>2024-10-30T08:54:24Z</time>
      </trkpt>
      <trkpt lat="48.85683" lon="2.15511">
        <ele>115.73</ele>
        <time>2024-10-30T08:54:42Z</time>
      </trkpt>
      <trkpt lat="48.8568" lon="2.15503">
        <ele>117.83</ele>
        <time>2024-10-30T08:54:57Z</time>
      </trkpt>
      <trkpt lat="48.85677" lon="2.15498">
        <ele>119.24</ele>
        <time>2024-10-30T08:55:05Z</time>
      </trkpt>
      <trkpt lat="48.85672" lon="2.15488">
        <ele>122.03</ele>
        <time>2024-10-30T08:55:24Z</time>
      </trkpt>
      <trkpt lat="48.8566" lon="2.15479">
        <ele>123.59</ele>
        <time>2024-10-30T08:55:41Z</time>
      </trkpt>
      <trkpt lat="48.8566" lon="2.15465">
        <ele>123.9</ele>
        <time>2024-10-30T08:55:56Z</time>
      </trkpt>
      <trkpt lat="48.85656" lon="2.15462">
        <ele>124.26</ele>
        <time>2024-10-30T08:56:16Z</time>
      </trkpt>
      <trkpt lat="48.85648" lon="2.15453">
        <ele>128.11</ele>
        <time>2024-10-30T08:56:32Z</time>
      </trkpt>
      <trkpt lat="48.85647" lon="2.15452">
        <ele>128.33</ele>
        <time>2024-10-30T08:56:33Z</time>
      </trkpt>
      <trkpt lat="48.85638" lon="2.15436">
        <ele>131.13</ele>
        <time>2024-10-30T08:56:50Z</time>
      </trkpt>
      <trkpt lat="48.85628" lon="2.15419">
        <ele>132.39</ele>
        <time>2024-10-30T08:57:06Z</time>
      </trkpt>
      <trkpt lat="48.85619" lon="2.15404">
        <ele>133.06</ele>
        <time>2024-10-30T08:57:23Z</time>
      </trkpt>
      <trkpt lat="48.85599" lon="2.15381">
        <ele>132.85</ele>
        <time>2024-10-30T08:57:41Z</time>
      </trkpt>
      <trkpt lat="48.85595" lon="2.15377">
        <ele>132.62</ele>
        <time>2024-10-30T08:57:44Z</time>
      </trkpt>
      <trkpt lat="48.85581" lon="2.15394">
        <ele>131.49</ele>
        <time>2024-10-30T08:58:02Z</time>
      </trkpt>
      <trkpt lat="48.85573" lon="2.15409">
        <ele>130.93</ele>
        <time>2024-10-30T08:58:16Z</time>
      </trkpt>
      <trkpt lat="48.85564" lon="2.15426">
        <ele>131.6</ele>
        <time>2024-10-30T08:58:29Z</time>
      </trkpt>
      <trkpt lat="48.85549" lon="2.15445">
        <ele>132.41</ele>
        <time>2024-10-30T08:58:45Z</time>
      </trkpt>
      <trkpt lat="48.85536" lon="2.15465">
        <ele>132.76</ele>
        <time>2024-10-30T08:59:00Z</time>
      </trkpt>
      <trkpt lat="48.85525" lon="2.15487">
        <ele>131.87</ele>
        <time>2024-10-30T08:59:16Z</time>
      </trkpt>
      <trkpt lat="48.85516" lon="2.15502">
        <ele>131.12</ele>
        <time>2024-10-30T08:59:29Z</time>
      </trkpt>
      <trkpt lat="48.85507" lon="2.15515">
        <ele>131.43</ele>
        <time>2024-10-30T08:59:39Z</time>
      </trkpt>
      <trkpt lat="48.85496" lon="2.15535">
        <ele>132.37</ele>
        <time>2024-10-30T08:59:53Z</time>
      </trkpt>
      <trkpt lat="48.85481" lon="2.15551">
        <ele>132.26</ele>
        <time>2024-10-30T09:00:09Z</time>
      </trkpt>
      <trkpt lat="48.8547" lon="2.15568">
        <ele>132.34</ele>
        <time>2024-10-30T09:00:22Z</time>
      </trkpt>
      <trkpt lat="48.85458" lon="2.15591">
        <ele>130.78</ele>
        <time>2024-10-30T09:00:40Z</time>
      </trkpt>
      <trkpt lat="48.85458" lon="2.15593">
        <ele>130.12</ele>
        <time>2024-10-30T09:00:42Z</time>
      </trkpt>
      <trkpt lat="48.85455" lon="2.156">
        <ele>128.66</ele>
        <time>2024-10-30T09:00:48Z</time>
      </trkpt>
      <trkpt lat="48.8545" lon="2.15608">
        <ele>129.39</ele>
        <time>2024-10-30T09:01:00Z</time>
      </trkpt>
      <trkpt lat="48.85446" lon="2.1561">
        <ele>129.86</ele>
        <time>2024-10-30T09:01:20Z</time>
      </trkpt>
      <trkpt lat="48.85443" lon="2.15614">
        <ele>129.33</ele>
        <time>2024-10-30T09:01:33Z</time>
      </trkpt>
      <trkpt lat="48.85439" lon="2.15618">
        <ele>129.61</ele>
        <time>2024-10-30T09:01:54Z</time>
      </trkpt>
      <trkpt lat="48.85433" lon="2.15624">
        <ele>127.58</ele>
        <time>2024-10-30T09:02:10Z</time>
      </trkpt>
      <trkpt lat="48.85432" lon="2.15624">
        <ele>127.33</ele>
        <time>2024-10-30T09:02:11Z</time>
      </trkpt>
      <trkpt lat="48.85427" lon="2.15627">
        <ele>126.13</ele>
        <time>2024-10-30T09:02:25Z</time>
      </trkpt>
      <trkpt lat="48.85422" lon="2.15628">
        <ele>123.51</ele>
        <time>2024-10-30T09:02:40Z</time>
      </trkpt>
      <trkpt lat="48.85417" lon="2.15629">
        <ele>120.43</ele>
        <time>2024-10-30T09:02:53Z</time>
      </trkpt>
      <trkpt lat="48.85419" lon="2.15628">
        <ele>120.67</ele>
        <time>2024-10-30T09:03:13Z</time>
      </trkpt>
      <trkpt lat="48.85418" lon="2.15632">
        <ele>119.99</ele>
        <time>2024-10-30T09:03:34Z</time>
      </trkpt>
      <trkpt lat="48.85408" lon="2.15637">
        <ele>117.92</ele>
        <time>2024-10-30T09:03:49Z</time>
      </trkpt>
      <trkpt lat="48.85402" lon="2.15643">
        <ele>118.69</ele>
        <time>2024-10-30T09:04:04Z</time>
      </trkpt>
      <trkpt lat="48.854" lon="2.1564">
        <ele>119.5</ele>
        <time>2024-10-30T09:04:23Z</time>
      </trkpt>
      <trkpt lat="48.85396" lon="2.15645">
        <ele>120.7</ele>
        <time>2024-10-30T09:04:38Z</time>
      </trkpt>
      <trkpt lat="48.8539" lon="2.15658">
        <ele>122.99</ele>
        <time>2024-10-30T09:04:54Z</time>
      </trkpt>
      <trkpt lat="48.85383" lon="2.15666">
        <ele>126.72</ele>
        <time>2024-10-30T09:05:06Z</time>
      </trkpt>
      <trkpt lat="48.85376" lon="2.15675">
        <ele>129.75</ele>
        <time>2024-10-30T09:05:16Z</time>
      </trkpt>
      <trkpt lat="48.85372" lon="2.15689">
        <ele>131.75</ele>
        <time>2024-10-30T09:05:29Z</time>
      </trkpt>
      <trkpt lat="48.85364" lon="2.157">
        <ele>133.7</ele>
        <time>2024-10-30T09:05:49Z</time>
      </trkpt>
      <trkpt lat="48.8536" lon="2.15704">
        <ele>134.15</ele>
        <time>2024-10-30T09:05:55Z</time>
      </trkpt>
      <trkpt lat="48.85352" lon="2.15712">
        <ele>134.38</ele>
        <time>2024-10-30T09:06:16Z</time>
      </trkpt>
      <trkpt lat="48.85347" lon="2.15712">
        <ele>134.7</ele>
        <time>2024-10-30T09:06:38Z</time>
      </trkpt>
      <trkpt lat="48.85344" lon="2.15713">
        <ele>134.65</ele>
        <time>2024-10-30T09:06:58Z</time>
      </trkpt>
      <trkpt lat="48.85345" lon="2.15715">
        <ele>134.56</ele>
        <time>2024-10-30T09:07:21Z</time>
      </trkpt>
      <trkpt lat="48.85344" lon="2.15713">
        <ele>134.79</ele>
        <time>2024-10-30T09:07:43Z</time>
      </trkpt>
      <trkpt lat="48.85349" lon="2.15718">
        <ele>134.9</ele>
        <time>2024-10-30T09:08:00Z</time>
      </trkpt>
      <trkpt lat="48.85349" lon="2.15717">
        <ele>135.08</ele>
        <time>2024-10-30T09:08:20Z</time>
      </trkpt>
      <trkpt lat="48.85348" lon="2.15715">
        <ele>135.35</ele>
        <time>2024-10-30T09:08:31Z</time>
      </trkpt>
      <trkpt lat="48.85348" lon="2.15715">
        <ele>134.95</ele>
        <time>2024-10-30T09:08:52Z</time>
      </trkpt>
      <trkpt lat="48.85345" lon="2.15717">
        <ele>136.01</ele>
        <time>2024-10-30T09:09:08Z</time>
      </trkpt>
      <trkpt lat="48.85345" lon="2.1572">
        <ele>135.69</ele>
        <time>2024-10-30T09:09:27Z</time>
      </trkpt>
      <trkpt lat="48.85345" lon="2.15711">
        <ele>137.01</ele>
        <time>2024-10-30T09:09:46Z</time>
      </trkpt>
      <trkpt lat="48.85341" lon="2.15701">
        <ele>136.38</ele>
        <time>2024-10-30T09:09:58Z</time>
      </trkpt>
      <trkpt lat="48.85333" lon="2.15679">
        <ele>137.38</ele>
        <time>2024-10-30T09:10:15Z</time>
      </trkpt>
      <trkpt lat="48.85322" lon="2.15649">
        <ele>137.85</ele>
        <time>2024-10-30T09:10:32Z</time>
      </trkpt>
      <trkpt lat="48.85315" lon="2.1563">
        <ele>138.12</ele>
        <time>2024-10-30T09:10:47Z</time>
      </trkpt>
      <trkpt lat="48.85302" lon="2.15609">
        <ele>137.5</ele>
        <time>2024-10-30T09:11:04Z</time>
      </trkpt>
      <trkpt lat="48.85301" lon="2.15608">
        <ele>138.42</ele>
        <time>2024-10-30T09:11:05Z</time>
      </trkpt>
      <trkpt lat="48.85291" lon="2.15584">
        <ele>138.27</ele>
        <time>2024-10-30T09:11:18Z</time>
      </trkpt>
      <trkpt lat="48.85282" lon="2.15563">
        <ele>138.28</ele>
        <time>2024-10-30T09:11:34Z</time>
      </trkpt>
      <trkpt lat="48.85273" lon="2.15541">
        <ele>138.79</ele>
        <time>2024-10-30T09:11:50Z</time>
      </trkpt>
      <trkpt lat="48.85265" lon="2.15542">
        <ele>138.95</ele>
        <time>2024-10-30T09:12:06Z</time>
      </trkpt>
      <trkpt lat="48.85249" lon="2.15557">
        <ele>139.13</ele>
        <time>2024-10-30T09:12:25Z</time>
      </trkpt>
      <trkpt lat="48.85237" lon="2.15569">
        <ele>138.8</ele>
        <time>2024-10-30T09:12:42Z</time>
      </trkpt>
      <trkpt lat="48.8522" lon="2.15588">
        <ele>138.92</ele>
        <time>2024-10-30T09:12:59Z</time>
      </trkpt>
      <trkpt lat="48.85208" lon="2.15613">
        <ele>138.89</ele>
        <time>2024-10-30T09:13:17Z</time>
      </trkpt>
      <trkpt lat="48.85196" lon="2.15638">
        <ele>138.48</ele>
        <time>2024-10-30T09:13:34Z</time>
      </trkpt>
      <trkpt lat="48.85181" lon="2.15662">
        <ele>138.56</ele>
        <time>2024-10-30T09:13:48Z</time>
      </trkpt>
      <trkpt lat="48.85172" lon="2.15676">
        <ele>138.39</ele>
        <time>2024-10-30T09:14:01Z</time>
      </trkpt>
      <trkpt lat="48.8516" lon="2.1568">
        <ele>138.37</ele>
        <time>2024-10-30T09:14:14Z</time>
      </trkpt>
      <trkpt lat="48.85151" lon="2.15681">
        <ele>138.51</ele>
        <time>2024-10-30T09:14:28Z</time>
      </trkpt>
      <trkpt lat="48.8515" lon="2.15681">
        <ele>138.45</ele>
        <time>2024-10-30T09:14:29Z</time>
      </trkpt>
      <trkpt lat="48.85137" lon="2.15685">
        <ele>138.11</ele>
        <time>2024-10-30T09:14:43Z</time>
      </trkpt>
      <trkpt lat="48.85126" lon="2.15698">
        <ele>138.18</ele>
        <time>2024-10-30T09:14:57Z</time>
      </trkpt>
      <trkpt lat="48.85115" lon="2.15711">
        <ele>137.87</ele>
        <time>2024-10-30T09:15:11Z</time>
      </trkpt>
      <trkpt lat="48.85095" lon="2.15732">
        <ele>137.97</ele>
        <time>2024-10-30T09:15:26Z</time>
      </trkpt>
      <trkpt lat="48.8509" lon="2.15736">
        <ele>137.2</ele>
        <time>2024-10-30T09:15:30Z</time>
      </trkpt>
      <trkpt lat="48.85078" lon="2.15757">
        <ele>137.07</ele>
        <time>2024-10-30T09:15:50Z</time>
      </trkpt>
      <trkpt lat="48.85057" lon="2.15787">
        <ele>136.78</ele>
        <time>2024-10-30T09:16:10Z</time>
      </trkpt>
      <trkpt lat="48.85042" lon="2.15813">
        <ele>136.76</ele>
        <time>2024-10-30T09:16:26Z</time>
      </trkpt>
      <trkpt lat="48.85026" lon="2.15834">
        <ele>136.01</ele>
        <time>2024-10-30T09:16:41Z</time>
      </trkpt>
      <trkpt lat="48.85011" lon="2.15858">
        <ele>135.99</ele>
        <time>2024-10-30T09:16:55Z</time>
      </trkpt>
      <trkpt lat="48.84997" lon="2.1588">
        <ele>135.91</ele>
        <time>2024-10-30T09:17:09Z</time>
      </trkpt>
      <trkpt lat="48.84986" lon="2.15895">
        <ele>135.53</ele>
        <time>2024-10-30T09:17:24Z</time>
      </trkpt>
      <trkpt lat="48.84977" lon="2.15901">
        <ele>135.6</ele>
        <time>2024-10-30T09:17:38Z</time>
      </trkpt>
      <trkpt lat="48.84958" lon="2.15919">
        <ele>135.69</ele>
        <time>2024-10-30T09:17:55Z</time>
      </trkpt>
      <trkpt lat="48.84935" lon="2.1593">
        <ele>134.9</ele>
        <time>2024-10-30T09:18:10Z</time>
      </trkpt>
      <trkpt lat="48.84918" lon="2.15931">
        <ele>134.39</ele>
        <time>2024-10-30T09:18:24Z</time>
      </trkpt>
      <trkpt lat="48.84898" lon="2.15935">
        <ele>133.36</ele>
        <time>2024-10-30T09:18:35Z</time>
      </trkpt>
      <trkpt lat="48.84882" lon="2.15937">
        <ele>133.97</ele>
        <time>2024-10-30T09:18:47Z</time>
      </trkpt>
      <trkpt lat="48.84859" lon="2.15948">
        <ele>134.4</ele>
        <time>2024-10-30T09:19:04Z</time>
      </trkpt>
      <trkpt lat="48.84839" lon="2.15972">
        <ele>132.62</ele>
        <time>2024-10-30T09:19:20Z</time>
      </trkpt>
      <trkpt lat="48.84828" lon="2.15979">
        <ele>132.25</ele>
        <time>2024-10-30T09:19:34Z</time>
      </trkpt>
      <trkpt lat="48.84817" lon="2.15976">
        <ele>131.97</ele>
        <time>2024-10-30T09:19:44Z</time>
      </trkpt>
      <trkpt lat="48.84798" lon="2.15995">
        <ele>132.35</ele>
        <time>2024-10-30T09:20:01Z</time>
      </trkpt>
      <trkpt lat="48.8479" lon="2.15996">
        <ele>132.12</ele>
        <time>2024-10-30T09:20:15Z</time>
      </trkpt>
      <trkpt lat="48.84789" lon="2.15986">
        <ele>131.19</ele>
        <time>2024-10-30T09:20:27Z</time>
      </trkpt>
      <trkpt lat="48.8479" lon="2.15996">
        <ele>130.86</ele>
        <time>2024-10-30T09:20:40Z</time>
      </trkpt>
      <trkpt lat="48.84793" lon="2.15998">
        <ele>130.59</ele>
        <time>2024-10-30T09:20:52Z</time>
      </trkpt>
      <trkpt lat="48.8479" lon="2.15995">
        <ele>130.79</ele>
        <time>2024-10-30T09:20:59Z</time>
      </trkpt>
      <trkpt lat="48.84788" lon="2.15995">
        <ele>130.83</ele>
        <time>2024-10-30T09:21:02Z</time>
      </trkpt>
      <trkpt lat="48.84786" lon="2.15999">
        <ele>129.96</ele>
        <time>2024-10-30T09:21:04Z</time>
      </trkpt>
      <trkpt lat="48.84786" lon="2.16009">
        <ele>126.84</ele>
        <time>2024-10-30T09:21:16Z</time>
      </trkpt>
      <trkpt lat="48.84788" lon="2.16019">
        <ele>123.6</ele>
        <time>2024-10-30T09:21:28Z</time>
      </trkpt>
      <trkpt lat="48.84799" lon="2.16027">
        <ele>120.45</ele>
        <time>2024-10-30T09:21:44Z</time>
      </trkpt>
      <trkpt lat="48.84811" lon="2.16032">
        <ele>118.29</ele>
        <time>2024-10-30T09:21:56Z</time>
      </trkpt>
      <trkpt lat="48.84824" lon="2.16044">
        <ele>116.65</ele>
        <time>2024-10-30T09:22:11Z</time>
      </trkpt>
      <trkpt lat="48.84841" lon="2.1606">
        <ele>115.5</ele>
        <time>2024-10-30T09:22:27Z</time>
      </trkpt>
      <trkpt lat="48.8485" lon="2.16083">
        <ele>113.73</ele>
        <time>2024-10-30T09:22:41Z</time>
      </trkpt>
      <trkpt lat="48.84863" lon="2.16104">
        <ele>111.67</ele>
        <time>2024-10-30T09:22:57Z</time>
      </trkpt>
      <trkpt lat="48.84885" lon="2.16121">
        <ele>109.83</ele>
        <time>2024-10-30T09:23:13Z</time>
      </trkpt>
      <trkpt lat="48.84898" lon="2.16131">
        <ele>108.78</ele>
        <time>2024-10-30T09:23:26Z</time>
      </trkpt>
      <trkpt lat="48.84915" lon="2.16153">
        <ele>107.16</ele>
        <time>2024-10-30T09:23:42Z</time>
      </trkpt>
      <trkpt lat="48.84931" lon="2.16173">
        <ele>105</ele>
        <time>2024-10-30T09:23:58Z</time>
      </trkpt>
      <trkpt lat="48.84947" lon="2.16186">
        <ele>104.76</ele>
        <time>2024-10-30T09:24:12Z</time>
      </trkpt>
      <trkpt lat="48.84965" lon="2.162">
        <ele>103.22</ele>
        <time>2024-10-30T09:24:27Z</time>
      </trkpt>
      <trkpt lat="48.84981" lon="2.16215">
        <ele>101.69</ele>
        <time>2024-10-30T09:24:43Z</time>
      </trkpt>
      <trkpt lat="48.84995" lon="2.16234">
        <ele>101.17</ele>
        <time>2024-10-30T09:24:59Z</time>
      </trkpt>
      <trkpt lat="48.85009" lon="2.16254">
        <ele>99.35</ele>
        <time>2024-10-30T09:25:15Z</time>
      </trkpt>
      <trkpt lat="48.85015" lon="2.16261">
        <ele>99.75</ele>
        <time>2024-10-30T09:25:20Z</time>
      </trkpt>
      <trkpt lat="48.85015" lon="2.16267">
        <ele>99.16</ele>
        <time>2024-10-30T09:25:23Z</time>
      </trkpt>
      <trkpt lat="48.85028" lon="2.16291">
        <ele>98.58</ele>
        <time>2024-10-30T09:25:41Z</time>
      </trkpt>
      <trkpt lat="48.85042" lon="2.16308">
        <ele>97.03</ele>
        <time>2024-10-30T09:25:56Z</time>
      </trkpt>
      <trkpt lat="48.8506" lon="2.16329">
        <ele>95.67</ele>
        <time>2024-10-30T09:26:13Z</time>
      </trkpt>
      <trkpt lat="48.85078" lon="2.16345">
        <ele>94.17</ele>
        <time>2024-10-30T09:26:30Z</time>
      </trkpt>
      <trkpt lat="48.85103" lon="2.16354">
        <ele>92.35</ele>
        <time>2024-10-30T09:26:46Z</time>
      </trkpt>
      <trkpt lat="48.85122" lon="2.16359">
        <ele>90.84</ele>
        <time>2024-10-30T09:27:00Z</time>
      </trkpt>
      <trkpt lat="48.85144" lon="2.16362">
        <ele>89.39</ele>
        <time>2024-10-30T09:27:17Z</time>
      </trkpt>
      <trkpt lat="48.85155" lon="2.16377">
        <ele>88.42</ele>
        <time>2024-10-30T09:27:29Z</time>
      </trkpt>
      <trkpt lat="48.85155" lon="2.16377">
        <ele>88.57</ele>
        <time>2024-10-30T09:27:30Z</time>
      </trkpt>
      <trkpt lat="48.85158" lon="2.16378">
        <ele>88.64</ele>
        <time>2024-10-30T09:27:32Z</time>
      </trkpt>
      <trkpt lat="48.85169" lon="2.1638">
        <ele>88.4</ele>
        <time>2024-10-30T09:27:37Z</time>
      </trkpt>
      <trkpt lat="48.85171" lon="2.16399">
        <ele>88.26</ele>
        <time>2024-10-30T09:27:52Z</time>
      </trkpt>
      <trkpt lat="48.85171" lon="2.16411">
        <ele>88.9</ele>
        <time>2024-10-30T09:28:08Z</time>
      </trkpt>
      <trkpt lat="48.85177" lon="2.16419">
        <ele>88.46</ele>
        <time>2024-10-30T09:28:26Z</time>
      </trkpt>
      <trkpt lat="48.85173" lon="2.16428">
        <ele>89.12</ele>
        <time>2024-10-30T09:28:38Z</time>
      </trkpt>
      <trkpt lat="48.85164" lon="2.16436">
        <ele>89.51</ele>
        <time>2024-10-30T09:28:54Z</time>
      </trkpt>
      <trkpt lat="48.85148" lon="2.16446">
        <ele>90.69</ele>
        <time>2024-10-30T09:29:09Z</time>
      </trkpt>
      <trkpt lat="48.85135" lon="2.16451">
        <ele>90.71</ele>
        <time>2024-10-30T09:29:22Z</time>
      </trkpt>
      <trkpt lat="48.85115" lon="2.1646">
        <ele>91.02</ele>
        <time>2024-10-30T09:29:40Z</time>
      </trkpt>
      <trkpt lat="48.85103" lon="2.16475">
        <ele>90.76</ele>
        <time>2024-10-30T09:29:52Z</time>
      </trkpt>
      <trkpt lat="48.85101" lon="2.16476">
        <ele>90.64</ele>
        <time>2024-10-30T09:29:56Z</time>
      </trkpt>
      <trkpt lat="48.85084" lon="2.16476">
        <ele>92.09</ele>
        <time>2024-10-30T09:30:12Z</time>
      </trkpt>
      <trkpt lat="48.85076" lon="2.16476">
        <ele>91.89</ele>
        <time>2024-10-30T09:30:19Z</time>
      </trkpt>
      <trkpt lat="48.85061" lon="2.1647">
        <ele>91.92</ele>
        <time>2024-10-30T09:30:33Z</time>
      </trkpt>
      <trkpt lat="48.8505" lon="2.16473">
        <ele>92.97</ele>
        <time>2024-10-30T09:30:45Z</time>
      </trkpt>
      <trkpt lat="48.85034" lon="2.16488">
        <ele>95.04</ele>
        <time>2024-10-30T09:31:02Z</time>
      </trkpt>
      <trkpt lat="48.85023" lon="2.16492">
        <ele>96.23</ele>
        <time>2024-10-30T09:31:16Z</time>
      </trkpt>
      <trkpt lat="48.85003" lon="2.16503">
        <ele>98.68</ele>
        <time>2024-10-30T09:31:32Z</time>
      </trkpt>
      <trkpt lat="48.8499" lon="2.16517">
        <ele>99.58</ele>
        <time>2024-10-30T09:31:49Z</time>
      </trkpt>
      <trkpt lat="48.84975" lon="2.16526">
        <ele>102.89</ele>
        <time>2024-10-30T09:32:07Z</time>
      </trkpt>
      <trkpt lat="48.84967" lon="2.16534">
        <ele>105.91</ele>
        <time>2024-10-30T09:32:19Z</time>
      </trkpt>
      <trkpt lat="48.84954" lon="2.16537">
        <ele>108.3</ele>
        <time>2024-10-30T09:32:28Z</time>
      </trkpt>
      <trkpt lat="48.84936" lon="2.16539">
        <ele>111.24</ele>
        <time>2024-10-30T09:32:46Z</time>
      </trkpt>
      <trkpt lat="48.84927" lon="2.16547">
        <ele>113.56</ele>
        <time>2024-10-30T09:33:01Z</time>
      </trkpt>
      <trkpt lat="48.8492" lon="2.16551">
        <ele>113.69</ele>
        <time>2024-10-30T09:33:09Z</time>
      </trkpt>
      <trkpt lat="48.84908" lon="2.16559">
        <ele>112.95</ele>
        <time>2024-10-30T09:33:28Z</time>
      </trkpt>
      <trkpt lat="48.84906" lon="2.16561">
        <ele>113.31</ele>
        <time>2024-10-30T09:33:31Z</time>
      </trkpt>
      <trkpt lat="48.84905" lon="2.16563">
        <ele>113.41</ele>
        <time>2024-10-30T09:33:33Z</time>
      </trkpt>
      <trkpt lat="48.84903" lon="2.16558">
        <ele>112.63</ele>
        <time>2024-10-30T09:33:54Z</time>
      </trkpt>
      <trkpt lat="48.84899" lon="2.16551">
        <ele>112.58</ele>
        <time>2024-10-30T09:34:11Z</time>
      </trkpt>
      <trkpt lat="48.84889" lon="2.16543">
        <ele>112.51</ele>
        <time>2024-10-30T09:34:33Z</time>
      </trkpt>
      <trkpt lat="48.84885" lon="2.16537">
        <ele>112.64</ele>
        <time>2024-10-30T09:34:52Z</time>
      </trkpt>
      <trkpt lat="48.84881" lon="2.16544">
        <ele>113.18</ele>
        <time>2024-10-30T09:35:13Z</time>
      </trkpt>
      <trkpt lat="48.84878" lon="2.16547">
        <ele>112.97</ele>
        <time>2024-10-30T09:35:33Z</time>
      </trkpt>
      <trkpt lat="48.84878" lon="2.16551">
        <ele>113.18</ele>
        <time>2024-10-30T09:35:51Z</time>
      </trkpt>
      <trkpt lat="48.84878" lon="2.16554">
        <ele>113.18</ele>
        <time>2024-10-30T09:35:54Z</time>
      </trkpt>
      <trkpt lat="48.84879" lon="2.16552">
        <ele>113.48</ele>
        <time>2024-10-30T09:36:06Z</time>
      </trkpt>
      <trkpt lat="48.84881" lon="2.16554">
        <ele>112.91</ele>
        <time>2024-10-30T09:36:25Z</time>
      </trkpt>
      <trkpt lat="48.84885" lon="2.16573">
        <ele>112.68</ele>
        <time>2024-10-30T09:36:40Z</time>
      </trkpt>
      <trkpt lat="48.84897" lon="2.16593">
        <ele>112.58</ele>
        <time>2024-10-30T09:36:56Z</time>
      </trkpt>
      <trkpt lat="48.84908" lon="2.16626">
        <ele>112.64</ele>
        <time>2024-10-30T09:37:14Z</time>
      </trkpt>
      <trkpt lat="48.84922" lon="2.16652">
        <ele>112.41</ele>
        <time>2024-10-30T09:37:31Z</time>
      </trkpt>
      <trkpt lat="48.84925" lon="2.16657">
        <ele>112.45</ele>
        <time>2024-10-30T09:37:34Z</time>
      </trkpt>
      <trkpt lat="48.84933" lon="2.16689">
        <ele>112.66</ele>
        <time>2024-10-30T09:37:50Z</time>
      </trkpt>
      <trkpt lat="48.84944" lon="2.16716">
        <ele>112.48</ele>
        <time>2024-10-30T09:38:02Z</time>
      </trkpt>
      <trkpt lat="48.84954" lon="2.1675">
        <ele>112.44</ele>
        <time>2024-10-30T09:38:19Z</time>
      </trkpt>
      <trkpt lat="48.84963" lon="2.16786">
        <ele>111.71</ele>
        <time>2024-10-30T09:38:36Z</time>
      </trkpt>
      <trkpt lat="48.84966" lon="2.16801">
        <ele>111.7</ele>
        <time>2024-10-30T09:38:42Z</time>
      </trkpt>
      <trkpt lat="48.84976" lon="2.16837">
        <ele>111.02</ele>
        <time>2024-10-30T09:38:59Z</time>
      </trkpt>
      <trkpt lat="48.84982" lon="2.16874">
        <ele>110.72</ele>
        <time>2024-10-30T09:39:15Z</time>
      </trkpt>
      <trkpt lat="48.84992" lon="2.16914">
        <ele>110.21</ele>
        <time>2024-10-30T09:39:34Z</time>
      </trkpt>
      <trkpt lat="48.85001" lon="2.16932">
        <ele>110.11</ele>
        <time>2024-10-30T09:39:47Z</time>
      </trkpt>
      <trkpt lat="48.85013" lon="2.16932">
        <ele>108.88</ele>
        <time>2024-10-30T09:39:58Z</time>
      </trkpt>
      <trkpt lat="48.85031" lon="2.16943">
        <ele>108.97</ele>
        <time>2024-10-30T09:40:15Z</time>
      </trkpt>
      <trkpt lat="48.85038" lon="2.16977">
        <ele>108.08</ele>
        <time>2024-10-30T09:40:32Z</time>
      </trkpt>
      <trkpt lat="48.85043" lon="2.17007">
        <ele>107.54</ele>
        <time>2024-10-30T09:40:46Z</time>
      </trkpt>
      <trkpt lat="48.85045" lon="2.17028">
        <ele>105.11</ele>
        <time>2024-10-30T09:41:00Z</time>
      </trkpt>
      <trkpt lat="48.85047" lon="2.17064">
        <ele>103.26</ele>
        <time>2024-10-30T09:41:17Z</time>
      </trkpt>
      <trkpt lat="48.85048" lon="2.17084">
        <ele>100.18</ele>
        <time>2024-10-30T09:41:29Z</time>
      </trkpt>
      <trkpt lat="48.85056" lon="2.17125">
        <ele>99.08</ele>
        <time>2024-10-30T09:41:46Z</time>
      </trkpt>
      <trkpt lat="48.8506" lon="2.17151">
        <ele>100.19</ele>
        <time>2024-10-30T09:42:02Z</time>
      </trkpt>
      <trkpt lat="48.85066" lon="2.17182">
        <ele>101.89</ele>
        <time>2024-10-30T09:42:18Z</time>
      </trkpt>
      <trkpt lat="48.85068" lon="2.17196">
        <ele>102.19</ele>
        <time>2024-10-30T09:42:24Z</time>
      </trkpt>
      <trkpt lat="48.85071" lon="2.17208">
        <ele>102.61</ele>
        <time>2024-10-30T09:42:40Z</time>
      </trkpt>
      <trkpt lat="48.85073" lon="2.17234">
        <ele>104.87</ele>
        <time>2024-10-30T09:42:55Z</time>
      </trkpt>
      <trkpt lat="48.85076" lon="2.17264">
        <ele>106.72</ele>
        <time>2024-10-30T09:43:12Z</time>
      </trkpt>
      <trkpt lat="48.85079" lon="2.1729">
        <ele>108.25</ele>
        <time>2024-10-30T09:43:28Z</time>
      </trkpt>
      <trkpt lat="48.85084" lon="2.17316">
        <ele>108.1</ele>
        <time>2024-10-30T09:43:43Z</time>
      </trkpt>
      <trkpt lat="48.85086" lon="2.17329">
        <ele>108.76</ele>
        <time>2024-10-30T09:43:52Z</time>
      </trkpt>
      <trkpt lat="48.85088" lon="2.17337">
        <ele>107.95</ele>
        <time>2024-10-30T09:43:56Z</time>
      </trkpt>
      <trkpt lat="48.85088" lon="2.17358">
        <ele>108.18</ele>
        <time>2024-10-30T09:44:14Z</time>
      </trkpt>
      <trkpt lat="48.85095" lon="2.1738">
        <ele>107.5</ele>
        <time>2024-10-30T09:44:29Z</time>
      </trkpt>
      <trkpt lat="48.85095" lon="2.17408">
        <ele>108.11</ele>
        <time>2024-10-30T09:44:46Z</time>
      </trkpt>
      <trkpt lat="48.85096" lon="2.17432">
        <ele>107.92</ele>
        <time>2024-10-30T09:44:58Z</time>
      </trkpt>
      <trkpt lat="48.85094" lon="2.17437">
        <ele>107.56</ele>
        <time>2024-10-30T09:45:18Z</time>
      </trkpt>
      <trkpt lat="48.85094" lon="2.17438">
        <ele>108.04</ele>
        <time>2024-10-30T09:45:19Z</time>
      </trkpt>
      <trkpt lat="48.85086" lon="2.1743">
        <ele>107.51</ele>
        <time>2024-10-30T09:45:37Z</time>
      </trkpt>
      <trkpt lat="48.85083" lon="2.17436">
        <ele>108.03</ele>
        <time>2024-10-30T09:45:57Z</time>
      </trkpt>
      <trkpt lat="48.85081" lon="2.17437">
        <ele>108.24</ele>
        <time>2024-10-30T09:46:07Z</time>
      </trkpt>
      <trkpt lat="48.85072" lon="2.17428">
        <ele>107.97</ele>
        <time>2024-10-30T09:46:24Z</time>
      </trkpt>
      <trkpt lat="48.85071" lon="2.17426">
        <ele>108.52</ele>
        <time>2024-10-30T09:46:43Z</time>
      </trkpt>
      <trkpt lat="48.85071" lon="2.17427">
        <ele>109</ele>
        <time>2024-10-30T09:47:01Z</time>
      </trkpt>
      <trkpt lat="48.85074" lon="2.17433">
        <ele>109.08</ele>
        <time>2024-10-30T09:47:22Z</time>
      </trkpt>
      <trkpt lat="48.85078" lon="2.17439">
        <ele>109.39</ele>
        <time>2024-10-30T09:47:43Z</time>
      </trkpt>
      <trkpt lat="48.85087" lon="2.1745">
        <ele>110.1</ele>
        <time>2024-10-30T09:47:58Z</time>
      </trkpt>
      <trkpt lat="48.85107" lon="2.17465">
        <ele>110.18</ele>
        <time>2024-10-30T09:48:16Z</time>
      </trkpt>
      <trkpt lat="48.85129" lon="2.1747">
        <ele>110.52</ele>
        <time>2024-10-30T09:48:31Z</time>
      </trkpt>
      <trkpt lat="48.85142" lon="2.17474">
        <ele>111.26</ele>
        <time>2024-10-30T09:48:39Z</time>
      </trkpt>
      <trkpt lat="48.85168" lon="2.17475">
        <ele>111.74</ele>
        <time>2024-10-30T09:48:56Z</time>
      </trkpt>
      <trkpt lat="48.85188" lon="2.17481">
        <ele>112.43</ele>
        <time>2024-10-30T09:49:10Z</time>
      </trkpt>
      <trkpt lat="48.85212" lon="2.17477">
        <ele>111.88</ele>
        <time>2024-10-30T09:49:26Z</time>
      </trkpt>
      <trkpt lat="48.85235" lon="2.1747">
        <ele>112.18</ele>
        <time>2024-10-30T09:49:40Z</time>
      </trkpt>
      <trkpt lat="48.85247" lon="2.17451">
        <ele>112.75</ele>
        <time>2024-10-30T09:49:52Z</time>
      </trkpt>
      <trkpt lat="48.85248" lon="2.17447">
        <ele>112.93</ele>
        <time>2024-10-30T09:49:54Z</time>
      </trkpt>
      <trkpt lat="48.85246" lon="2.17415">
        <ele>112.5</ele>
        <time>2024-10-30T09:50:12Z</time>
      </trkpt>
      <trkpt lat="48.85242" lon="2.17391">
        <ele>112.86</ele>
        <time>2024-10-30T09:50:25Z</time>
      </trkpt>
      <trkpt lat="48.85239" lon="2.17359">
        <ele>112.5</ele>
        <time>2024-10-30T09:50:41Z</time>
      </trkpt>
      <trkpt lat="48.85238" lon="2.17334">
        <ele>112.54</ele>
        <time>2024-10-30T09:50:53Z</time>
      </trkpt>
      <trkpt lat="48.8524" lon="2.17316">
        <ele>112.01</ele>
        <time>2024-10-30T09:51:08Z</time>
      </trkpt>
      <trkpt lat="48.85246" lon="2.17315">
        <ele>111.81</ele>
        <time>2024-10-30T09:51:20Z</time>
      </trkpt>
      <trkpt lat="48.85265" lon="2.17321">
        <ele>110.98</ele>
        <time>2024-10-30T09:51:37Z</time>
      </trkpt>
      <trkpt lat="48.85278" lon="2.17322">
        <ele>111.44</ele>
        <time>2024-10-30T09:51:44Z</time>
      </trkpt>
      <trkpt lat="48.85286" lon="2.17321">
        <ele>111.89</ele>
        <time>2024-10-30T09:51:51Z</time>
      </trkpt>
      <trkpt lat="48.85295" lon="2.17319">
        <ele>112.08</ele>
        <time>2024-10-30T09:52:00Z</time>
      </trkpt>
      <trkpt lat="48.85306" lon="2.17309">
        <ele>110.77</ele>
        <time>2024-10-30T09:52:13Z</time>
      </trkpt>
      <trkpt lat="48.85307" lon="2.17306">
        <ele>111</ele>
        <time>2024-10-30T09:52:14Z</time>
      </trkpt>
      <trkpt lat="48.85319" lon="2.17293">
        <ele>111.3</ele>
        <time>2024-10-30T09:52:26Z</time>
      </trkpt>
      <trkpt lat="48.85323" lon="2.17288">
        <ele>111.18</ele>
        <time>2024-10-30T09:52:32Z</time>
      </trkpt>
      <trkpt lat="48.85336" lon="2.17278">
        <ele>110.87</ele>
        <time>2024-10-30T09:52:43Z</time>
      </trkpt>
      <trkpt lat="48.85345" lon="2.17276">
        <ele>111.14</ele>
        <time>2024-10-30T09:52:53Z</time>
      </trkpt>
      <trkpt lat="48.85362" lon="2.17273">
        <ele>111.63</ele>
        <time>2024-10-30T09:53:07Z</time>
      </trkpt>
      <trkpt lat="48.85372" lon="2.17278">
        <ele>111.7</ele>
        <time>2024-10-30T09:53:16Z</time>
      </trkpt>
      <trkpt lat="48.85386" lon="2.1729">
        <ele>111.6</ele>
        <time>2024-10-30T09:53:28Z</time>
      </trkpt>
      <trkpt lat="48.85389" lon="2.17292">
        <ele>111.86</ele>
        <time>2024-10-30T09:53:30Z</time>
      </trkpt>
      <trkpt lat="48.85396" lon="2.17311">
        <ele>112.39</ele>
        <time>2024-10-30T09:53:44Z</time>
      </trkpt>
      <trkpt lat="48.85395" lon="2.17327">
        <ele>112.89</ele>
        <time>2024-10-30T09:53:56Z</time>
      </trkpt>
      <trkpt lat="48.85387" lon="2.17348">
        <ele>113.22</ele>
        <time>2024-10-30T09:54:12Z</time>
      </trkpt>
      <trkpt lat="48.85381" lon="2.17374">
        <ele>112.7</ele>
        <time>2024-10-30T09:54:25Z</time>
      </trkpt>
      <trkpt lat="48.85382" lon="2.17409">
        <ele>113.02</ele>
        <time>2024-10-30T09:54:39Z</time>
      </trkpt>
      <trkpt lat="48.85386" lon="2.1743">
        <ele>113</ele>
        <time>2024-10-30T09:54:49Z</time>
      </trkpt>
      <trkpt lat="48.85401" lon="2.1744">
        <ele>113.05</ele>
        <time>2024-10-30T09:55:03Z</time>
      </trkpt>
      <trkpt lat="48.85414" lon="2.17449">
        <ele>112.07</ele>
        <time>2024-10-30T09:55:20Z</time>
      </trkpt>
      <trkpt lat="48.85435" lon="2.17445">
        <ele>112.03</ele>
        <time>2024-10-30T09:55:34Z</time>
      </trkpt>
      <trkpt lat="48.85441" lon="2.17443">
        <ele>112.39</ele>
        <time>2024-10-30T09:55:37Z</time>
      </trkpt>
      <trkpt lat="48.85448" lon="2.1744">
        <ele>111.95</ele>
        <time>2024-10-30T09:55:41Z</time>
      </trkpt>
      <trkpt lat="48.85462" lon="2.17431">
        <ele>111.74</ele>
        <time>2024-10-30T09:55:51Z</time>
      </trkpt>
      <trkpt lat="48.85463" lon="2.1743">
        <ele>111.6</ele>
        <time>2024-10-30T09:55:52Z</time>
      </trkpt>
      <trkpt lat="48.8548" lon="2.17425">
        <ele>111.58</ele>
        <time>2024-10-30T09:56:02Z</time>
      </trkpt>
      <trkpt lat="48.85494" lon="2.17418">
        <ele>111.15</ele>
        <time>2024-10-30T09:56:11Z</time>
      </trkpt>
      <trkpt lat="48.8551" lon="2.17412">
        <ele>110.86</ele>
        <time>2024-10-30T09:56:22Z</time>
      </trkpt>
      <trkpt lat="48.85522" lon="2.1741">
        <ele>111.19</ele>
        <time>2024-10-30T09:56:31Z</time>
      </trkpt>
      <trkpt lat="48.85527" lon="2.17412">
        <ele>111.36</ele>
        <time>2024-10-30T09:56:37Z</time>
      </trkpt>
      <trkpt lat="48.85542" lon="2.17412">
        <ele>110.86</ele>
        <time>2024-10-30T09:56:47Z</time>
      </trkpt>
      <trkpt lat="48.85549" lon="2.1741">
        <ele>110.6</ele>
        <time>2024-10-30T09:56:51Z</time>
      </trkpt>
      <trkpt lat="48.85552" lon="2.1741">
        <ele>110.71</ele>
        <time>2024-10-30T09:56:53Z</time>
      </trkpt>
      <trkpt lat="48.85559" lon="2.17405">
        <ele>110.88</ele>
        <time>2024-10-30T09:56:59Z</time>
      </trkpt>
      <trkpt lat="48.8557" lon="2.17396">
        <ele>111.04</ele>
        <time>2024-10-30T09:57:09Z</time>
      </trkpt>
      <trkpt lat="48.85583" lon="2.17383">
        <ele>110.02</ele>
        <time>2024-10-30T09:57:25Z</time>
      </trkpt>
      <trkpt lat="48.85586" lon="2.17382">
        <ele>109.93</ele>
        <time>2024-10-30T09:57:28Z</time>
      </trkpt>
      <trkpt lat="48.85601" lon="2.17372">
        <ele>109.98</ele>
        <time>2024-10-30T09:57:43Z</time>
      </trkpt>
      <trkpt lat="48.85619" lon="2.17363">
        <ele>110.55</ele>
        <time>2024-10-30T09:57:59Z</time>
      </trkpt>
      <trkpt lat="48.85634" lon="2.17353">
        <ele>110.6</ele>
        <time>2024-10-30T09:58:10Z</time>
      </trkpt>
      <trkpt lat="48.85649" lon="2.17345">
        <ele>110.25</ele>
        <time>2024-10-30T09:58:22Z</time>
      </trkpt>
      <trkpt lat="48.85663" lon="2.17346">
        <ele>107.66</ele>
        <time>2024-10-30T09:58:40Z</time>
      </trkpt>
      <trkpt lat="48.85672" lon="2.1735">
        <ele>107.95</ele>
        <time>2024-10-30T09:58:56Z</time>
      </trkpt>
      <trkpt lat="48.85686" lon="2.17346">
        <ele>107.03</ele>
        <time>2024-10-30T09:59:10Z</time>
      </trkpt>
      <trkpt lat="48.85709" lon="2.17331">
        <ele>105.72</ele>
        <time>2024-10-30T09:59:29Z</time>
      </trkpt>
      <trkpt lat="48.85728" lon="2.17325">
        <ele>103.11</ele>
        <time>2024-10-30T09:59:44Z</time>
      </trkpt>
      <trkpt lat="48.85751" lon="2.17322">
        <ele>101.27</ele>
        <time>2024-10-30T10:00:01Z</time>
      </trkpt>
      <trkpt lat="48.85768" lon="2.17318">
        <ele>99.58</ele>
        <time>2024-10-30T10:00:18Z</time>
      </trkpt>
      <trkpt lat="48.85788" lon="2.17308">
        <ele>97.43</ele>
        <time>2024-10-30T10:00:34Z</time>
      </trkpt>
      <trkpt lat="48.8581" lon="2.17288">
        <ele>96.41</ele>
        <time>2024-10-30T10:00:52Z</time>
      </trkpt>
      <trkpt lat="48.85827" lon="2.17268">
        <ele>95.46</ele>
        <time>2024-10-30T10:01:08Z</time>
      </trkpt>
      <trkpt lat="48.85849" lon="2.17259">
        <ele>94.79</ele>
        <time>2024-10-30T10:01:25Z</time>
      </trkpt>
      <trkpt lat="48.85865" lon="2.1725">
        <ele>93.32</ele>
        <time>2024-10-30T10:01:40Z</time>
      </trkpt>
      <trkpt lat="48.85868" lon="2.17248">
        <ele>92.86</ele>
        <time>2024-10-30T10:01:42Z</time>
      </trkpt>
      <trkpt lat="48.85882" lon="2.17234">
        <ele>91.74</ele>
        <time>2024-10-30T10:01:52Z</time>
      </trkpt>
      <trkpt lat="48.85892" lon="2.17221">
        <ele>91.46</ele>
        <time>2024-10-30T10:02:04Z</time>
      </trkpt>
      <trkpt lat="48.85898" lon="2.17218">
        <ele>90.99</ele>
        <time>2024-10-30T10:02:09Z</time>
      </trkpt>
      <trkpt lat="48.8591" lon="2.17215">
        <ele>89.27</ele>
        <time>2024-10-30T10:02:18Z</time>
      </trkpt>
      <trkpt lat="48.8592" lon="2.17211">
        <ele>87.42</ele>
        <time>2024-10-30T10:02:29Z</time>
      </trkpt>
      <trkpt lat="48.85934" lon="2.17207">
        <ele>85.42</ele>
        <time>2024-10-30T10:02:43Z</time>
      </trkpt>
      <trkpt lat="48.85945" lon="2.172">
        <ele>83.91</ele>
        <time>2024-10-30T10:02:53Z</time>
      </trkpt>
      <trkpt lat="48.85958" lon="2.17196">
        <ele>82.68</ele>
        <time>2024-10-30T10:03:03Z</time>
      </trkpt>
      <trkpt lat="48.85968" lon="2.17194">
        <ele>81.44</ele>
        <time>2024-10-30T10:03:11Z</time>
      </trkpt>
      <trkpt lat="48.85982" lon="2.17185">
        <ele>80.06</ele>
        <time>2024-10-30T10:03:22Z</time>
      </trkpt>
      <trkpt lat="48.85997" lon="2.17181">
        <ele>78.95</ele>
        <time>2024-10-30T10:03:37Z</time>
      </trkpt>
      <trkpt lat="48.86013" lon="2.17173">
        <ele>78.51</ele>
        <time>2024-10-30T10:03:48Z</time>
      </trkpt>
      <trkpt lat="48.86018" lon="2.17172">
        <ele>78.4</ele>
        <time>2024-10-30T10:03:51Z</time>
      </trkpt>
      <trkpt lat="48.86021" lon="2.17171">
        <ele>79.09</ele>
        <time>2024-10-30T10:03:53Z</time>
      </trkpt>
      <trkpt lat="48.86038" lon="2.17167">
        <ele>78.55</ele>
        <time>2024-10-30T10:04:03Z</time>
      </trkpt>
      <trkpt lat="48.86053" lon="2.17163">
        <ele>78.13</ele>
        <time>2024-10-30T10:04:15Z</time>
      </trkpt>
      <trkpt lat="48.86073" lon="2.17159">
        <ele>76.65</ele>
        <time>2024-10-30T10:04:29Z</time>
      </trkpt>
      <trkpt lat="48.86096" lon="2.17149">
        <ele>75.79</ele>
        <time>2024-10-30T10:04:44Z</time>
      </trkpt>
      <trkpt lat="48.86106" lon="2.17139">
        <ele>75.2</ele>
        <time>2024-10-30T10:04:54Z</time>
      </trkpt>
      <trkpt lat="48.86116" lon="2.17115">
        <ele>76.31</ele>
        <time>2024-10-30T10:05:11Z</time>
      </trkpt>
      <trkpt lat="48.86121" lon="2.17089">
        <ele>76.55</ele>
        <time>2024-10-30T10:05:27Z</time>
      </trkpt>
      <trkpt lat="48.86114" lon="2.17065">
        <ele>77.75</ele>
        <time>2024-10-30T10:05:44Z</time>
      </trkpt>
      <trkpt lat="48.86114" lon="2.17041">
        <ele>77.59</ele>
        <time>2024-10-30T10:05:59Z</time>
      </trkpt>
      <trkpt lat="48.86113" lon="2.17015">
        <ele>78.57</ele>
        <time>2024-10-30T10:06:14Z</time>
      </trkpt>
      <trkpt lat="48.86119" lon="2.1699">
        <ele>77.44</ele>
        <time>2024-10-30T10:06:28Z</time>
      </trkpt>
      <trkpt lat="48.8612" lon="2.16988">
        <ele>77.61</ele>
        <time>2024-10-30T10:06:29Z</time>
      </trkpt>
      <trkpt lat="48.86122" lon="2.16982">
        <ele>77.29</ele>
        <time>2024-10-30T10:06:33Z</time>
      </trkpt>
      <trkpt lat="48.86132" lon="2.16968">
        <ele>77.07</ele>
        <time>2024-10-30T10:06:44Z</time>
      </trkpt>
      <trkpt lat="48.86136" lon="2.16961">
        <ele>76.96</ele>
        <time>2024-10-30T10:06:48Z</time>
      </trkpt>
      <trkpt lat="48.86139" lon="2.16954">
        <ele>76.58</ele>
        <time>2024-10-30T10:06:51Z</time>
      </trkpt>
      <trkpt lat="48.86148" lon="2.16936">
        <ele>75.52</ele>
        <time>2024-10-30T10:07:01Z</time>
      </trkpt>
      <trkpt lat="48.86158" lon="2.16917">
        <ele>75.57</ele>
        <time>2024-10-30T10:07:12Z</time>
      </trkpt>
      <trkpt lat="48.86159" lon="2.16915">
        <ele>75.46</ele>
        <time>2024-10-30T10:07:13Z</time>
      </trkpt>
      <trkpt lat="48.8617" lon="2.16894">
        <ele>74.98</ele>
        <time>2024-10-30T10:07:26Z</time>
      </trkpt>
      <trkpt lat="48.86176" lon="2.16872">
        <ele>74.75</ele>
        <time>2024-10-30T10:07:39Z</time>
      </trkpt>
      <trkpt lat="48.86175" lon="2.16841">
        <ele>74.12</ele>
        <time>2024-10-30T10:07:55Z</time>
      </trkpt>
      <trkpt lat="48.86164" lon="2.16821">
        <ele>74.3</ele>
        <time>2024-10-30T10:08:07Z</time>
      </trkpt>
      <trkpt lat="48.86145" lon="2.16804">
        <ele>76.18</ele>
        <time>2024-10-30T10:08:24Z</time>
      </trkpt>
      <trkpt lat="48.86133" lon="2.16788">
        <ele>76.07</ele>
        <time>2024-10-30T10:08:36Z</time>
      </trkpt>
      <trkpt lat="48.86116" lon="2.1677">
        <ele>76.75</ele>
        <time>2024-10-30T10:08:52Z</time>
      </trkpt>
      <trkpt lat="48.86098" lon="2.16756">
        <ele>76.98</ele>
        <time>2024-10-30T10:09:04Z</time>
      </trkpt>
      <trkpt lat="48.86083" lon="2.1674">
        <ele>76.35</ele>
        <time>2024-10-30T10:09:18Z</time>
      </trkpt>
      <trkpt lat="48.86062" lon="2.16737">
        <ele>75.59</ele>
        <time>2024-10-30T10:09:34Z</time>
      </trkpt>
      <trkpt lat="48.86041" lon="2.16736">
        <ele>73.91</ele>
        <time>2024-10-30T10:09:49Z</time>
      </trkpt>
      <trkpt lat="48.86022" lon="2.16732">
        <ele>75.06</ele>
        <time>2024-10-30T10:10:04Z</time>
      </trkpt>
      <trkpt lat="48.86004" lon="2.16733">
        <ele>74.67</ele>
        <time>2024-10-30T10:10:19Z</time>
      </trkpt>
      <trkpt lat="48.85977" lon="2.16743">
        <ele>74.69</ele>
        <time>2024-10-30T10:10:38Z</time>
      </trkpt>
      <trkpt lat="48.8595" lon="2.16752">
        <ele>74.41</ele>
        <time>2024-10-30T10:10:55Z</time>
      </trkpt>
      <trkpt lat="48.85926" lon="2.16753">
        <ele>74.57</ele>
        <time>2024-10-30T10:11:12Z</time>
      </trkpt>
      <trkpt lat="48.85899" lon="2.16757">
        <ele>75.63</ele>
        <time>2024-10-30T10:11:29Z</time>
      </trkpt>
      <trkpt lat="48.85882" lon="2.16755">
        <ele>75.11</ele>
        <time>2024-10-30T10:11:46Z</time>
      </trkpt>
      <trkpt lat="48.8587" lon="2.16758">
        <ele>73.86</ele>
        <time>2024-10-30T10:12:02Z</time>
      </trkpt>
      <trkpt lat="48.85856" lon="2.16758">
        <ele>73.2</ele>
        <time>2024-10-30T10:12:18Z</time>
      </trkpt>
      <trkpt lat="48.85853" lon="2.16758">
        <ele>72.96</ele>
        <time>2024-10-30T10:12:20Z</time>
      </trkpt>
      <trkpt lat="48.85847" lon="2.16756">
        <ele>73.26</ele>
        <time>2024-10-30T10:12:24Z</time>
      </trkpt>
      <trkpt lat="48.85823" lon="2.16753">
        <ele>74.1</ele>
        <time>2024-10-30T10:12:40Z</time>
      </trkpt>
      <trkpt lat="48.858" lon="2.16744">
        <ele>74.82</ele>
        <time>2024-10-30T10:12:56Z</time>
      </trkpt>
      <trkpt lat="48.85775" lon="2.16728">
        <ele>73.38</ele>
        <time>2024-10-30T10:13:14Z</time>
      </trkpt>
      <trkpt lat="48.85755" lon="2.16722">
        <ele>72.21</ele>
        <time>2024-10-30T10:13:30Z</time>
      </trkpt>
      <trkpt lat="48.85736" lon="2.16723">
        <ele>70.12</ele>
        <time>2024-10-30T10:13:46Z</time>
      </trkpt>
      <trkpt lat="48.85713" lon="2.16721">
        <ele>67.11</ele>
        <time>2024-10-30T10:14:01Z</time>
      </trkpt>
      <trkpt lat="48.85692" lon="2.16707">
        <ele>64.87</ele>
        <time>2024-10-30T10:14:18Z</time>
      </trkpt>
      <trkpt lat="48.85672" lon="2.16691">
        <ele>63.79</ele>
        <time>2024-10-30T10:14:33Z</time>
      </trkpt>
      <trkpt lat="48.85651" lon="2.16677">
        <ele>64.47</ele>
        <time>2024-10-30T10:14:49Z</time>
      </trkpt>
      <trkpt lat="48.85626" lon="2.16663">
        <ele>65.56</ele>
        <time>2024-10-30T10:15:06Z</time>
      </trkpt>
      <trkpt lat="48.85601" lon="2.16647">
        <ele>68.13</ele>
        <time>2024-10-30T10:15:22Z</time>
      </trkpt>
      <trkpt lat="48.85581" lon="2.16627">
        <ele>70.45</ele>
        <time>2024-10-30T10:15:38Z</time>
      </trkpt>
      <trkpt lat="48.85563" lon="2.16613">
        <ele>73.29</ele>
        <time>2024-10-30T10:15:56Z</time>
      </trkpt>
      <trkpt lat="48.85544" lon="2.16603">
        <ele>75.42</ele>
        <time>2024-10-30T10:16:15Z</time>
      </trkpt>
      <trkpt lat="48.85525" lon="2.16597">
        <ele>77.81</ele>
        <time>2024-10-30T10:16:32Z</time>
      </trkpt>
      <trkpt lat="48.85515" lon="2.16589">
        <ele>77.17</ele>
        <time>2024-10-30T10:16:46Z</time>
      </trkpt>
      <trkpt lat="48.85513" lon="2.16582">
        <ele>77.11</ele>
        <time>2024-10-30T10:17:05Z</time>
      </trkpt>
      <trkpt lat="48.85515" lon="2.16582">
        <ele>76.84</ele>
        <time>2024-10-30T10:17:08Z</time>
      </trkpt>
      <trkpt lat="48.8552" lon="2.16571">
        <ele>75.14</ele>
        <time>2024-10-30T10:17:23Z</time>
      </trkpt>
      <trkpt lat="48.8552" lon="2.1655">
        <ele>74.17</ele>
        <time>2024-10-30T10:17:39Z</time>
      </trkpt>
      <trkpt lat="48.85519" lon="2.1655">
        <ele>73.5</ele>
        <time>2024-10-30T10:17:41Z</time>
      </trkpt>
      <trkpt lat="48.85514" lon="2.16531">
        <ele>73.26</ele>
        <time>2024-10-30T10:17:55Z</time>
      </trkpt>
      <trkpt lat="48.85504" lon="2.16524">
        <ele>73.48</ele>
        <time>2024-10-30T10:18:09Z</time>
      </trkpt>
      <trkpt lat="48.85491" lon="2.1651">
        <ele>73.3</ele>
        <time>2024-10-30T10:18:22Z</time>
      </trkpt>
      <trkpt lat="48.85476" lon="2.16493">
        <ele>73.19</ele>
        <time>2024-10-30T10:18:36Z</time>
      </trkpt>
      <trkpt lat="48.85466" lon="2.16483">
        <ele>74.1</ele>
        <time>2024-10-30T10:18:45Z</time>
      </trkpt>
      <trkpt lat="48.85453" lon="2.16468">
        <ele>73.53</ele>
        <time>2024-10-30T10:18:57Z</time>
      </trkpt>
      <trkpt lat="48.85435" lon="2.16453">
        <ele>73.68</ele>
        <time>2024-10-30T10:19:13Z</time>
      </trkpt>
      <trkpt lat="48.85416" lon="2.16433">
        <ele>73.42</ele>
        <time>2024-10-30T10:19:30Z</time>
      </trkpt>
      <trkpt lat="48.85398" lon="2.16424">
        <ele>72.88</ele>
        <time>2024-10-30T10:19:44Z</time>
      </trkpt>
      <trkpt lat="48.85389" lon="2.16421">
        <ele>72.49</ele>
        <time>2024-10-30T10:19:51Z</time>
      </trkpt>
      <trkpt lat="48.85367" lon="2.16407">
        <ele>72.98</ele>
        <time>2024-10-30T10:20:07Z</time>
      </trkpt>
      <trkpt lat="48.85362" lon="2.16405">
        <ele>72.98</ele>
        <time>2024-10-30T10:20:12Z</time>
      </trkpt>
      <trkpt lat="48.85357" lon="2.16402">
        <ele>73</ele>
        <time>2024-10-30T10:20:15Z</time>
      </trkpt>
      <trkpt lat="48.85341" lon="2.16388">
        <ele>73.61</ele>
        <time>2024-10-30T10:20:30Z</time>
      </trkpt>
      <trkpt lat="48.85344" lon="2.16373">
        <ele>72.2</ele>
        <time>2024-10-30T10:20:43Z</time>
      </trkpt>
      <trkpt lat="48.85362" lon="2.16364">
        <ele>72.06</ele>
        <time>2024-10-30T10:20:57Z</time>
      </trkpt>
      <trkpt lat="48.85365" lon="2.16365">
        <ele>72.14</ele>
        <time>2024-10-30T10:20:59Z</time>
      </trkpt>
      <trkpt lat="48.85371" lon="2.16361">
        <ele>72.08</ele>
        <time>2024-10-30T10:21:03Z</time>
      </trkpt>
      <trkpt lat="48.85394" lon="2.16352">
        <ele>72.04</ele>
        <time>2024-10-30T10:21:18Z</time>
      </trkpt>
      <trkpt lat="48.85412" lon="2.16339">
        <ele>72.03</ele>
        <time>2024-10-30T10:21:29Z</time>
      </trkpt>
      <trkpt lat="48.85419" lon="2.1633">
        <ele>71.63</ele>
        <time>2024-10-30T10:21:33Z</time>
      </trkpt>
      <trkpt lat="48.8543" lon="2.16313">
        <ele>72.42</ele>
        <time>2024-10-30T10:21:43Z</time>
      </trkpt>
      <trkpt lat="48.85438" lon="2.1631">
        <ele>71.66</ele>
        <time>2024-10-30T10:21:51Z</time>
      </trkpt>
      <trkpt lat="48.85446" lon="2.1631">
        <ele>71.92</ele>
        <time>2024-10-30T10:21:57Z</time>
      </trkpt>
      <trkpt lat="48.85471" lon="2.16323">
        <ele>71.83</ele>
        <time>2024-10-30T10:22:13Z</time>
      </trkpt>
      <trkpt lat="48.8549" lon="2.16333">
        <ele>71.52</ele>
        <time>2024-10-30T10:22:28Z</time>
      </trkpt>
      <trkpt lat="48.85507" lon="2.16342">
        <ele>71.38</ele>
        <time>2024-10-30T10:22:42Z</time>
      </trkpt>
      <trkpt lat="48.85532" lon="2.16358">
        <ele>72.06</ele>
        <time>2024-10-30T10:22:58Z</time>
      </trkpt>
      <trkpt lat="48.85549" lon="2.16385">
        <ele>71.91</ele>
        <time>2024-10-30T10:23:15Z</time>
      </trkpt>
      <trkpt lat="48.85556" lon="2.16397">
        <ele>72.69</ele>
        <time>2024-10-30T10:23:20Z</time>
      </trkpt>
      <trkpt lat="48.85562" lon="2.16411">
        <ele>72.42</ele>
        <time>2024-10-30T10:23:29Z</time>
      </trkpt>
      <trkpt lat="48.85568" lon="2.16422">
        <ele>72.6</ele>
        <time>2024-10-30T10:23:36Z</time>
      </trkpt>
      <trkpt lat="48.85571" lon="2.16422">
        <ele>72.39</ele>
        <time>2024-10-30T10:24:00Z</time>
      </trkpt>
      <trkpt lat="48.85573" lon="2.16418">
        <ele>71.55</ele>
        <time>2024-10-30T10:24:20Z</time>
      </trkpt>
      <trkpt lat="48.85571" lon="2.16411">
        <ele>76.19</ele>
        <time>2024-10-30T10:29:31Z</time>
      </trkpt>
      <trkpt lat="48.85571" lon="2.16411">
        <ele>85.45</ele>
        <time>2024-10-30T10:39:04Z</time>
      </trkpt>
    </trkseg>
  </trk>
</gpx>